sensor_id;sensor_type;location;lat;lon;timestamp;pressure;altitude;pressure_sealevel;temperature;humidity
6528;BME280;3297;42.664;23.256;2022-09-27T00:00:30;50375.88;;;-139.84;94.72
6528;BME280;3297;42.664;23.256;2022-09-27T00:02:55;50393.34;;;-139.84;94.13
6528;BME280;3297;42.664;23.256;2022-09-27T00:05:21;50410.84;;;-139.84;94.40
6528;BME280;3297;42.664;23.256;2022-09-27T00:07:47;50397.25;;;-139.84;94.41
6528;BME280;3297;42.664;23.256;2022-09-27T00:10:13;50428.34;;;-139.84;94.35
6528;BME280;3297;42.664;23.256;2022-09-27T00:12:39;50416.69;;;-139.84;94.11
6528;BME280;3297;42.664;23.256;2022-09-27T00:15:06;50445.84;;;-139.84;94.16
6528;BME280;3297;42.664;23.256;2022-09-27T00:17:32;50393.34;;;-139.84;93.92
6528;BME280;3297;42.664;23.256;2022-09-27T00:19:58;50401.13;;;-139.84;94.62
6528;BME280;3297;42.664;23.256;2022-09-27T00:22:25;50408.91;;;-139.84;95.69
6528;BME280;3297;42.664;23.256;2022-09-27T00:24:51;50397.25;;;-139.84;95.46
6528;BME280;3297;42.664;23.256;2022-09-27T00:27:17;50436.13;;;-139.84;95.29
6528;BME280;3297;42.664;23.256;2022-09-27T00:29:44;50406.97;;;-139.84;95.09
6528;BME280;3297;42.664;23.256;2022-09-27T00:32:11;50377.81;;;-139.84;94.84
6528;BME280;3297;42.664;23.256;2022-09-27T00:34:37;50424.47;;;-139.84;94.59
6528;BME280;3297;42.664;23.256;2022-09-27T00:37:02;50412.78;;;-139.84;95.49
6528;BME280;3297;42.664;23.256;2022-09-27T00:39:28;50418.63;;;-139.84;95.48
6528;BME280;3297;42.664;23.256;2022-09-27T00:41:54;50401.13;;;-139.84;95.55
6528;BME280;3297;42.664;23.256;2022-09-27T00:46:59;50447.78;;;-139.84;95.91
6528;BME280;3297;42.664;23.256;2022-09-27T00:49:44;50403.06;;;-139.84;95.17
6528;BME280;3297;42.664;23.256;2022-09-27T00:54:49;50422.50;;;-139.84;96.12
6528;BME280;3297;42.664;23.256;2022-09-27T00:57:17;50432.22;;;-139.84;96.12
6528;BME280;3297;42.664;23.256;2022-09-27T00:59:47;50393.34;;;-139.84;96.93
6528;BME280;3297;42.664;23.256;2022-09-27T01:02:14;50432.22;;;-139.84;96.57
6528;BME280;3297;42.664;23.256;2022-09-27T01:04:41;50377.81;;;-139.84;96.50
6528;BME280;3297;42.664;23.256;2022-09-27T01:07:08;50412.78;;;-139.84;96.81
6528;BME280;3297;42.664;23.256;2022-09-27T01:09:34;50397.25;;;-139.84;96.95
6528;BME280;3297;42.664;23.256;2022-09-27T01:12:22;50445.84;;;-139.84;97.28
6528;BME280;3297;42.664;23.256;2022-09-27T01:26:08;50438.06;;;-139.84;96.51
6528;BME280;3297;42.664;23.256;2022-09-27T01:41:55;50432.22;;;-139.84;96.50
6528;BME280;3297;42.664;23.256;2022-09-27T01:44:32;50436.13;;;-139.84;96.68
6528;BME280;3297;42.664;23.256;2022-09-27T01:47:03;50420.56;;;-139.84;96.79
6528;BME280;3297;42.664;23.256;2022-09-27T01:49:33;50438.06;;;-139.84;96.79
6528;BME280;3297;42.664;23.256;2022-09-27T01:52:04;50401.13;;;-139.84;96.97
6528;BME280;3297;42.664;23.256;2022-09-27T01:54:59;50424.47;;;-139.84;97.45
6528;BME280;3297;42.664;23.256;2022-09-27T01:57:37;50405.03;;;-139.84;97.70
6528;BME280;3297;42.664;23.256;2022-09-27T02:00:07;50408.91;;;-139.84;97.31
6528;BME280;3297;42.664;23.256;2022-09-27T02:02:40;50420.56;;;-139.84;97.12
6528;BME280;3297;42.664;23.256;2022-09-27T02:05:10;50420.56;;;-139.84;97.25
6528;BME280;3297;42.664;23.256;2022-09-27T02:07:59;50401.13;;;-139.84;97.63
6528;BME280;3297;42.664;23.256;2022-09-27T02:10:34;50440.00;;;-139.84;97.61
6528;BME280;3297;42.664;23.256;2022-09-27T02:13:19;50418.63;;;-139.84;97.66
6528;BME280;3297;42.664;23.256;2022-09-27T02:25:04;50424.47;;;-139.84;98.72
6528;BME280;3297;42.664;23.256;2022-09-27T02:27:51;50405.03;;;-139.84;99.12
6528;BME280;3297;42.664;23.256;2022-09-27T02:30:20;50420.56;;;-139.84;98.71
6528;BME280;3297;42.664;23.256;2022-09-27T02:32:46;50469.16;;;-139.84;98.35
6528;BME280;3297;42.664;23.256;2022-09-27T02:35:18;50430.28;;;-139.84;98.46
6528;BME280;3297;42.664;23.256;2022-09-27T02:37:46;50482.78;;;-139.84;99.21
6528;BME280;3297;42.664;23.256;2022-09-27T02:40:13;50443.91;;;-139.84;99.09
6528;BME280;3297;42.664;23.256;2022-09-27T02:42:39;50467.22;;;-139.84;98.83
6528;BME280;3297;42.664;23.256;2022-09-27T02:45:07;50447.78;;;-139.84;98.88
6528;BME280;3297;42.664;23.256;2022-09-27T02:53:30;50455.56;;;-139.84;98.48
6528;BME280;3297;42.664;23.256;2022-09-27T03:04:10;50443.91;;;-139.84;97.96
6528;BME280;3297;42.664;23.256;2022-09-27T03:06:43;50459.44;;;-139.84;98.71
6528;BME280;3297;42.664;23.256;2022-09-27T03:09:21;50441.94;;;-139.84;98.68
6528;BME280;3297;42.664;23.256;2022-09-27T03:11:47;50391.41;;;-139.84;99.29
6528;BME280;3297;42.664;23.256;2022-09-27T03:14:13;50430.28;;;-139.84;99.37
6528;BME280;3297;42.664;23.256;2022-09-27T03:16:39;50471.09;;;-139.84;99.72
6528;BME280;3297;42.664;23.256;2022-09-27T03:19:04;50440.00;;;-139.84;99.26
6528;BME280;3297;42.664;23.256;2022-09-27T03:21:30;50443.91;;;-139.84;100.00
6528;BME280;3297;42.664;23.256;2022-09-27T03:23:56;50461.38;;;-139.84;99.01
6528;BME280;3297;42.664;23.256;2022-09-27T03:26:21;50455.56;;;-139.84;97.67
6528;BME280;3297;42.664;23.256;2022-09-27T03:28:47;50432.22;;;-139.84;97.60
6528;BME280;3297;42.664;23.256;2022-09-27T03:31:12;50447.78;;;-139.84;97.20
6528;BME280;3297;42.664;23.256;2022-09-27T03:33:39;50467.22;;;-139.84;97.06
6528;BME280;3297;42.664;23.256;2022-09-27T03:36:05;50457.50;;;-139.84;96.95
6528;BME280;3297;42.664;23.256;2022-09-27T03:38:31;50410.84;;;-139.84;97.70
6528;BME280;3297;42.664;23.256;2022-09-27T03:40:57;50467.22;;;-139.84;98.04
6528;BME280;3297;42.664;23.256;2022-09-27T03:43:23;50465.28;;;-139.84;98.07
6528;BME280;3297;42.664;23.256;2022-09-27T03:45:49;50432.22;;;-139.84;98.19
6528;BME280;3297;42.664;23.256;2022-09-27T03:48:15;50455.56;;;-139.84;98.42
6528;BME280;3297;42.664;23.256;2022-09-27T03:50:41;50463.34;;;-139.84;98.73
6528;BME280;3297;42.664;23.256;2022-09-27T03:53:07;50484.72;;;-139.84;98.33
6528;BME280;3297;42.664;23.256;2022-09-27T03:55:32;50471.09;;;-139.84;98.17
6528;BME280;3297;42.664;23.256;2022-09-27T03:57:58;50475.00;;;-139.84;100.00
6528;BME280;3297;42.664;23.256;2022-09-27T04:00:23;50457.50;;;-139.84;95.01
6528;BME280;3297;42.664;23.256;2022-09-27T04:02:50;50484.72;;;-139.84;86.55
6528;BME280;3297;42.664;23.256;2022-09-27T04:05:16;50494.44;;;-139.84;86.35
6528;BME280;3297;42.664;23.256;2022-09-27T04:07:46;50475.00;;;-139.84;87.19
6528;BME280;3297;42.664;23.256;2022-09-27T04:10:12;50486.66;;;-139.84;88.52
6528;BME280;3297;42.664;23.256;2022-09-27T04:12:41;50459.44;;;-139.84;89.21
6528;BME280;3297;42.664;23.256;2022-09-27T04:15:07;50449.72;;;-139.84;90.70
6528;BME280;3297;42.664;23.256;2022-09-27T04:17:33;50473.03;;;-139.84;91.21
6528;BME280;3297;42.664;23.256;2022-09-27T04:20:00;50455.56;;;-139.84;91.99
6528;BME280;3297;42.664;23.256;2022-09-27T04:22:27;50424.47;;;-139.84;92.58
6528;BME280;3297;42.664;23.256;2022-09-27T04:24:53;50494.44;;;-139.84;93.00
6528;BME280;3297;42.664;23.256;2022-09-27T04:27:19;50428.34;;;-139.84;93.43
6528;BME280;3297;42.664;23.256;2022-09-27T04:29:46;50457.50;;;-139.84;93.52
6528;BME280;3297;42.664;23.256;2022-09-27T04:32:12;50443.91;;;-139.84;94.07
6528;BME280;3297;42.664;23.256;2022-09-27T04:34:37;50486.66;;;-139.84;94.87
6528;BME280;3297;42.664;23.256;2022-09-27T04:37:22;50440.00;;;-139.84;94.74
6528;BME280;3297;42.664;23.256;2022-09-27T04:39:47;50467.22;;;-139.84;95.02
6528;BME280;3297;42.664;23.256;2022-09-27T04:42:14;50469.16;;;-139.84;95.15
6528;BME280;3297;42.664;23.256;2022-09-27T04:44:40;50480.81;;;-139.84;95.43
6528;BME280;3297;42.664;23.256;2022-09-27T04:47:05;50471.09;;;-139.84;95.69
6528;BME280;3297;42.664;23.256;2022-09-27T04:49:31;50457.50;;;-139.84;95.98
6528;BME280;3297;42.664;23.256;2022-09-27T04:51:57;50451.66;;;-139.84;96.21
6528;BME280;3297;42.664;23.256;2022-09-27T04:54:22;50476.94;;;-139.84;96.58
6528;BME280;3297;42.664;23.256;2022-09-27T04:56:48;50451.66;;;-139.84;97.30
6528;BME280;3297;42.664;23.256;2022-09-27T04:59:14;50486.66;;;-139.84;97.20
6528;BME280;3297;42.664;23.256;2022-09-27T05:01:40;50451.66;;;-139.84;97.50
6528;BME280;3297;42.664;23.256;2022-09-27T05:04:06;50440.00;;;-139.84;97.51
6528;BME280;3297;42.664;23.256;2022-09-27T05:06:32;50459.44;;;-139.84;97.99
6528;BME280;3297;42.664;23.256;2022-09-27T05:08:57;50476.94;;;-139.84;98.45
6528;BME280;3297;42.664;23.256;2022-09-27T05:11:24;50428.34;;;-139.84;99.09
6528;BME280;3297;42.664;23.256;2022-09-27T05:13:49;50478.88;;;-139.84;99.18
6528;BME280;3297;42.664;23.256;2022-09-27T05:16:15;50492.47;;;-139.84;99.54
6528;BME280;3297;42.664;23.256;2022-09-27T05:18:41;50482.78;;;-139.84;99.34
6528;BME280;3297;42.664;23.256;2022-09-27T05:21:07;50486.66;;;-139.84;99.31
6528;BME280;3297;42.664;23.256;2022-09-27T05:23:33;50475.00;;;-139.84;99.56
6528;BME280;3297;42.664;23.256;2022-09-27T05:26:03;50482.78;;;-139.84;99.50
6528;BME280;3297;42.664;23.256;2022-09-27T05:28:29;50461.38;;;-139.84;99.93
6528;BME280;3297;42.664;23.256;2022-09-27T05:30:55;50459.44;;;-139.84;100.00
6528;BME280;3297;42.664;23.256;2022-09-27T05:33:21;50494.44;;;-139.84;100.00
6528;BME280;3297;42.664;23.256;2022-09-27T05:35:53;50447.78;;;-139.84;100.00
6528;BME280;3297;42.664;23.256;2022-09-27T05:38:19;50467.22;;;-139.84;100.00
6528;BME280;3297;42.664;23.256;2022-09-27T05:40:45;50488.59;;;-139.84;100.00
6528;BME280;3297;42.664;23.256;2022-09-27T05:43:14;50426.41;;;-139.84;100.00
6528;BME280;3297;42.664;23.256;2022-09-27T05:45:40;50453.59;;;-139.84;100.00
6528;BME280;3297;42.664;23.256;2022-09-27T05:48:06;50482.78;;;-139.84;100.00
6528;BME280;3297;42.664;23.256;2022-09-27T05:50:31;50476.94;;;-139.84;100.00
6528;BME280;3297;42.664;23.256;2022-09-27T05:52:57;50451.66;;;-139.84;100.00
6528;BME280;3297;42.664;23.256;2022-09-27T05:55:22;50467.22;;;-139.84;100.00
6528;BME280;3297;42.664;23.256;2022-09-27T05:58:05;50463.34;;;-139.84;100.00
6528;BME280;3297;42.664;23.256;2022-09-27T06:00:32;50447.78;;;-139.84;100.00
6528;BME280;3297;42.664;23.256;2022-09-27T06:03:00;50486.66;;;-139.84;100.00
6528;BME280;3297;42.664;23.256;2022-09-27T06:05:27;50463.34;;;-139.84;100.00
6528;BME280;3297;42.664;23.256;2022-09-27T06:07:59;50459.44;;;-139.84;100.00
6528;BME280;3297;42.664;23.256;2022-09-27T06:10:25;50478.88;;;-139.84;100.00
6528;BME280;3297;42.664;23.256;2022-09-27T06:12:51;50498.31;;;-139.84;100.00
6528;BME280;3297;42.664;23.256;2022-09-27T06:15:16;50494.44;;;-139.84;100.00
6528;BME280;3297;42.664;23.256;2022-09-27T06:17:42;50482.78;;;-139.84;100.00
6528;BME280;3297;42.664;23.256;2022-09-27T06:20:08;50529.41;;;-139.84;100.00
6528;BME280;3297;42.664;23.256;2022-09-27T06:22:34;50513.88;;;-139.84;100.00
6528;BME280;3297;42.664;23.256;2022-09-27T06:25:02;50475.00;;;-139.84;100.00
6528;BME280;3297;42.664;23.256;2022-09-27T06:27:29;50498.31;;;-139.84;100.00
6528;BME280;3297;42.664;23.256;2022-09-27T06:29:55;50506.09;;;-139.84;100.00
6528;BME280;3297;42.664;23.256;2022-09-27T06:32:21;50465.28;;;-139.84;100.00
6528;BME280;3297;42.664;23.256;2022-09-27T06:34:46;50484.72;;;-139.84;100.00
6528;BME280;3297;42.664;23.256;2022-09-27T06:37:12;50455.56;;;-139.84;99.90
6528;BME280;3297;42.664;23.256;2022-09-27T06:39:38;50478.88;;;-139.84;99.68
6528;BME280;3297;42.664;23.256;2022-09-27T06:42:03;50494.44;;;-139.84;99.74
6528;BME280;3297;42.664;23.256;2022-09-27T06:44:29;50544.97;;;-139.84;99.77
6528;BME280;3297;42.664;23.256;2022-09-27T06:46:54;50482.78;;;-139.84;100.00
6528;BME280;3297;42.664;23.256;2022-09-27T06:49:21;50473.03;;;-139.84;100.00
6528;BME280;3297;42.664;23.256;2022-09-27T06:51:47;50508.03;;;-139.84;100.00
6528;BME280;3297;42.664;23.256;2022-09-27T06:54:14;50490.53;;;-139.84;100.00
6528;BME280;3297;42.664;23.256;2022-09-27T06:56:39;50475.00;;;-139.84;100.00
6528;BME280;3297;42.664;23.256;2022-09-27T06:59:05;50461.38;;;-139.84;100.00
6528;BME280;3297;42.664;23.256;2022-09-27T07:01:49;50511.91;;;-139.84;100.00
6528;BME280;3297;42.664;23.256;2022-09-27T07:04:23;50517.75;;;-139.84;100.00
6528;BME280;3297;42.664;23.256;2022-09-27T07:06:49;50537.19;;;-139.84;100.00
6528;BME280;3297;42.664;23.256;2022-09-27T07:09:15;50517.75;;;-139.84;99.89
6528;BME280;3297;42.664;23.256;2022-09-27T07:11:40;50488.59;;;-139.84;100.00
6528;BME280;3297;42.664;23.256;2022-09-27T07:14:08;50556.63;;;-139.84;100.00
6528;BME280;3297;42.664;23.256;2022-09-27T07:16:34;50513.88;;;-139.84;100.00
6528;BME280;3297;42.664;23.256;2022-09-27T07:19:01;50471.09;;;-139.84;100.00
6528;BME280;3297;42.664;23.256;2022-09-27T07:21:26;50506.09;;;-139.84;100.00
6528;BME280;3297;42.664;23.256;2022-09-27T07:23:52;50484.72;;;-139.84;100.00
6528;BME280;3297;42.664;23.256;2022-09-27T07:26:18;50500.25;;;-139.84;100.00
6528;BME280;3297;42.664;23.256;2022-09-27T07:28:43;50509.97;;;-139.84;100.00
6528;BME280;3297;42.664;23.256;2022-09-27T07:31:11;50515.81;;;-139.84;100.00
6528;BME280;3297;42.664;23.256;2022-09-27T07:33:37;50515.81;;;-139.84;100.00
6528;BME280;3297;42.664;23.256;2022-09-27T07:36:08;50490.53;;;-139.84;100.00
6528;BME280;3297;42.664;23.256;2022-09-27T07:38:35;50513.88;;;-139.84;100.00
6528;BME280;3297;42.664;23.256;2022-09-27T07:41:08;50517.75;;;-139.84;100.00
6528;BME280;3297;42.664;23.256;2022-09-27T07:43:35;50550.78;;;-139.84;100.00
6528;BME280;3297;42.664;23.256;2022-09-27T07:46:00;50494.44;;;-139.84;99.68
6528;BME280;3297;42.664;23.256;2022-09-27T07:48:26;50529.41;;;-139.84;99.15
6528;BME280;3297;42.664;23.256;2022-09-27T07:50:52;50498.31;;;-139.84;99.13
6528;BME280;3297;42.664;23.256;2022-09-27T07:53:18;50515.81;;;-139.84;99.51
6528;BME280;3297;42.664;23.256;2022-09-27T07:55:49;50508.03;;;-139.84;99.12
6528;BME280;3297;42.664;23.256;2022-09-27T07:58:15;50457.50;;;-139.84;99.61
6528;BME280;3297;42.664;23.256;2022-09-27T08:00:40;50517.75;;;-139.84;99.73
6528;BME280;3297;42.664;23.256;2022-09-27T08:03:09;50535.25;;;-139.84;100.00
6528;BME280;3297;42.664;23.256;2022-09-27T08:05:35;50550.78;;;-139.84;100.00
6528;BME280;3297;42.664;23.256;2022-09-27T08:08:02;50525.53;;;-139.84;100.00
6528;BME280;3297;42.664;23.256;2022-09-27T08:10:29;50544.97;;;-139.84;100.00
6528;BME280;3297;42.664;23.256;2022-09-27T08:12:57;50546.91;;;-139.84;100.00
6528;BME280;3297;42.664;23.256;2022-09-27T08:15:22;50539.13;;;-139.84;100.00
6528;BME280;3297;42.664;23.256;2022-09-27T08:17:48;50521.63;;;-139.84;100.00
6528;BME280;3297;42.664;23.256;2022-09-27T08:20:15;50519.69;;;-139.84;100.00
6528;BME280;3297;42.664;23.256;2022-09-27T08:22:41;50543.03;;;-139.84;100.00
6528;BME280;3297;42.664;23.256;2022-09-27T08:25:08;50537.19;;;-139.84;100.00
6528;BME280;3297;42.664;23.256;2022-09-27T08:27:34;50509.97;;;-139.84;100.00
6528;BME280;3297;42.664;23.256;2022-09-27T08:29:59;50521.63;;;-139.84;100.00
6528;BME280;3297;42.664;23.256;2022-09-27T08:32:25;50541.06;;;-139.84;100.00
6528;BME280;3297;42.664;23.256;2022-09-27T08:34:52;50568.28;;;-139.84;100.00
6528;BME280;3297;42.664;23.256;2022-09-27T08:37:18;50509.97;;;-139.84;100.00
6528;BME280;3297;42.664;23.256;2022-09-27T08:39:44;50519.69;;;-139.84;100.00
6528;BME280;3297;42.664;23.256;2022-09-27T08:45:19;50523.59;;;-139.84;100.00
6528;BME280;3297;42.664;23.256;2022-09-27T08:47:52;50572.19;;;-139.84;99.79
6528;BME280;3297;42.664;23.256;2022-09-27T08:53:05;50525.53;;;-139.84;98.40
6528;BME280;3297;42.664;23.256;2022-09-27T08:55:40;50558.56;;;-139.84;98.33
6528;BME280;3297;42.664;23.256;2022-09-27T08:58:18;50558.56;;;-139.84;97.58
6528;BME280;3297;42.664;23.256;2022-09-27T09:00:49;50543.03;;;-139.84;96.35
6528;BME280;3297;42.664;23.256;2022-09-27T09:03:18;50541.06;;;-139.84;96.71
6528;BME280;3297;42.664;23.256;2022-09-27T09:06:04;50607.16;;;-139.84;96.02
6528;BME280;3297;42.664;23.256;2022-09-27T09:11:25;50570.22;;;-139.84;94.85
6528;BME280;3297;42.664;23.256;2022-09-27T09:25:30;50541.06;;;-139.84;91.37
6528;BME280;3297;42.664;23.256;2022-09-27T09:30:49;50541.06;;;-139.84;91.79
6528;BME280;3297;42.664;23.256;2022-09-27T09:33:28;50583.84;;;-139.84;91.60
6528;BME280;3297;42.664;23.256;2022-09-27T09:36:00;50578.00;;;-139.84;91.99
6528;BME280;3297;42.664;23.256;2022-09-27T09:38:48;50550.78;;;-139.84;91.22
6528;BME280;3297;42.664;23.256;2022-09-27T09:41:27;50583.84;;;-139.84;90.50
6528;BME280;3297;42.664;23.256;2022-09-27T09:44:16;50583.84;;;-139.84;91.18
6528;BME280;3297;42.664;23.256;2022-09-27T09:46:48;50576.06;;;-139.84;88.41
6528;BME280;3297;42.664;23.256;2022-09-27T09:49:35;50607.16;;;-139.84;88.27
6528;BME280;3297;42.664;23.256;2022-09-27T09:52:11;50618.81;;;-139.84;86.63
6528;BME280;3297;42.664;23.256;2022-09-27T09:59:46;50613.00;;;-139.84;85.21
6528;BME280;3297;42.664;23.256;2022-09-27T10:04:46;50558.56;;;-139.84;85.04
6528;BME280;3297;42.664;23.256;2022-09-27T10:07:13;50593.56;;;-139.84;86.96
6528;BME280;3297;42.664;23.256;2022-09-27T10:09:40;50579.94;;;-139.84;87.10
6528;BME280;3297;42.664;23.256;2022-09-27T10:12:06;50560.50;;;-139.84;85.44
6528;BME280;3297;42.664;23.256;2022-09-27T10:14:31;50578.00;;;-139.84;84.85
6528;BME280;3297;42.664;23.256;2022-09-27T10:16:59;50599.38;;;-139.84;84.93
6528;BME280;3297;42.664;23.256;2022-09-27T10:19:29;50572.19;;;-139.84;84.87
6528;BME280;3297;42.664;23.256;2022-09-27T10:22:02;50614.94;;;-139.84;84.90
6528;BME280;3297;42.664;23.256;2022-09-27T10:25:04;50578.00;;;-139.84;84.14
6528;BME280;3297;42.664;23.256;2022-09-27T10:27:58;50581.91;;;-139.84;84.04
6528;BME280;3297;42.664;23.256;2022-09-27T10:30:30;50578.00;;;-139.84;84.49
6528;BME280;3297;42.664;23.256;2022-09-27T10:33:15;50587.72;;;-139.84;83.07
6528;BME280;3297;42.664;23.256;2022-09-27T10:35:43;50595.50;;;-139.84;82.88
6528;BME280;3297;42.664;23.256;2022-09-27T10:40:52;50587.72;;;-139.84;83.19
6528;BME280;3297;42.664;23.256;2022-09-27T10:43:31;50562.47;;;-139.84;83.89
6528;BME280;3297;42.664;23.256;2022-09-27T10:46:32;50603.28;;;-139.84;81.31
6528;BME280;3297;42.664;23.256;2022-09-27T10:51:43;50587.72;;;-139.84;81.27
6528;BME280;3297;42.664;23.256;2022-09-27T10:54:28;50618.81;;;-139.84;81.47
6528;BME280;3297;42.664;23.256;2022-09-27T10:57:03;50591.63;;;-139.84;80.24
6528;BME280;3297;42.664;23.256;2022-09-27T10:59:33;50624.66;;;-139.84;75.46
6528;BME280;3297;42.664;23.256;2022-09-27T11:01:59;50642.16;;;-139.84;72.21
6528;BME280;3297;42.664;23.256;2022-09-27T11:04:35;50649.94;;;-139.84;67.41
6528;BME280;3297;42.664;23.256;2022-09-27T11:07:16;50661.59;;;-139.84;65.15
6528;BME280;3297;42.664;23.256;2022-09-27T11:12:14;50630.50;;;-139.84;62.37
6528;BME280;3297;42.664;23.256;2022-09-27T11:14:44;50634.38;;;-139.84;61.65
6528;BME280;3297;42.664;23.256;2022-09-27T11:20:31;50671.31;;;-139.84;59.92
6528;BME280;3297;42.664;23.256;2022-09-27T11:23:20;50642.16;;;-139.84;59.20
6528;BME280;3297;42.664;23.256;2022-09-27T11:34:28;50653.81;;;-139.84;57.61
6528;BME280;3297;42.664;23.256;2022-09-27T11:37:25;50601.34;;;-139.84;57.66
6528;BME280;3297;42.664;23.256;2022-09-27T11:40:04;50638.25;;;-139.84;57.60
6528;BME280;3297;42.664;23.256;2022-09-27T11:48:12;50616.88;;;-139.84;57.14
6528;BME280;3297;42.664;23.256;2022-09-27T11:51:22;50646.03;;;-139.84;55.63
6528;BME280;3297;42.664;23.256;2022-09-27T12:07:00;50659.66;;;-139.84;53.86
6528;BME280;3297;42.664;23.256;2022-09-27T12:09:35;50638.25;;;-139.84;54.42
6528;BME280;3297;42.664;23.256;2022-09-27T12:12:12;50640.22;;;-139.84;54.31
6528;BME280;3297;42.664;23.256;2022-09-27T12:14:49;50624.66;;;-139.84;54.26
6528;BME280;3297;42.664;23.256;2022-09-27T12:17:26;50655.75;;;-139.84;52.45
6528;BME280;3297;42.664;23.256;2022-09-27T12:19:58;50624.66;;;-139.84;51.60
6528;BME280;3297;42.664;23.256;2022-09-27T12:22:34;50607.16;;;-139.84;52.68
6528;BME280;3297;42.664;23.256;2022-09-27T12:25:02;50638.25;;;-139.84;53.30
6528;BME280;3297;42.664;23.256;2022-09-27T12:27:39;50613.00;;;-139.84;52.78
6528;BME280;3297;42.664;23.256;2022-09-27T12:30:11;50628.53;;;-139.84;51.60
6528;BME280;3297;42.664;23.256;2022-09-27T12:33:17;50653.81;;;-139.84;52.52
6528;BME280;3297;42.664;23.256;2022-09-27T12:35:50;50620.78;;;-139.84;53.14
6528;BME280;3297;42.664;23.256;2022-09-27T12:41:15;50638.25;;;-139.84;51.84
6528;BME280;3297;42.664;23.256;2022-09-27T12:43:46;50651.88;;;-139.84;52.31
6528;BME280;3297;42.664;23.256;2022-09-27T12:51:46;50626.59;;;-139.84;51.38
6528;BME280;3297;42.664;23.256;2022-09-27T12:57:26;50632.44;;;-139.84;51.97
6528;BME280;3297;42.664;23.256;2022-09-27T13:00:03;50628.53;;;-139.84;52.47
6528;BME280;3297;42.664;23.256;2022-09-27T13:10:49;50587.72;;;-139.84;51.90
6528;BME280;3297;42.664;23.256;2022-09-27T13:13:21;50614.94;;;-139.84;51.25
6528;BME280;3297;42.664;23.256;2022-09-27T13:15:55;50607.16;;;-139.84;51.92
6528;BME280;3297;42.664;23.256;2022-09-27T13:21:04;50611.06;;;-139.84;52.54
6528;BME280;3297;42.664;23.256;2022-09-27T13:26:00;50595.50;;;-139.84;53.51
6528;BME280;3297;42.664;23.256;2022-09-27T13:31:06;50624.66;;;-139.84;53.46
6528;BME280;3297;42.664;23.256;2022-09-27T13:33:47;50603.28;;;-139.84;53.04
6528;BME280;3297;42.664;23.256;2022-09-27T13:47:36;50605.22;;;-139.84;51.73
6528;BME280;3297;42.664;23.256;2022-09-27T13:50:25;50638.25;;;-139.84;52.09
6528;BME280;3297;42.664;23.256;2022-09-27T13:53:16;50605.22;;;-139.84;51.51
6528;BME280;3297;42.664;23.256;2022-09-27T13:55:45;50636.31;;;-139.84;52.52
6528;BME280;3297;42.664;23.256;2022-09-27T13:58:34;50599.38;;;-139.84;52.33
6528;BME280;3297;42.664;23.256;2022-09-27T14:01:32;50603.28;;;-139.84;52.70
6528;BME280;3297;42.664;23.256;2022-09-27T14:04:13;50618.81;;;-139.84;52.78
6528;BME280;3297;42.664;23.256;2022-09-27T14:06:44;50624.66;;;-139.84;53.40
6528;BME280;3297;42.664;23.256;2022-09-27T14:09:22;50609.09;;;-139.84;54.89
6528;BME280;3297;42.664;23.256;2022-09-27T14:11:54;50591.63;;;-139.84;55.36
6528;BME280;3297;42.664;23.256;2022-09-27T14:14:23;50630.50;;;-139.84;56.21
6528;BME280;3297;42.664;23.256;2022-09-27T14:16:50;50609.09;;;-139.84;56.14
6528;BME280;3297;42.664;23.256;2022-09-27T14:19:24;50618.81;;;-139.84;56.57
6528;BME280;3297;42.664;23.256;2022-09-27T14:22:09;50605.22;;;-139.84;56.45
6528;BME280;3297;42.664;23.256;2022-09-27T14:29:44;50576.06;;;-139.84;56.43
6528;BME280;3297;42.664;23.256;2022-09-27T14:32:13;50576.06;;;-139.84;56.35
6528;BME280;3297;42.664;23.256;2022-09-27T14:34:40;50611.06;;;-139.84;56.53
6528;BME280;3297;42.664;23.256;2022-09-27T14:37:18;50620.78;;;-139.84;55.58
6528;BME280;3297;42.664;23.256;2022-09-27T14:39:57;50603.28;;;-139.84;55.55
6528;BME280;3297;42.664;23.256;2022-09-27T14:42:26;50624.66;;;-139.84;55.49
6528;BME280;3297;42.664;23.256;2022-09-27T14:44:55;50583.84;;;-139.84;55.48
6528;BME280;3297;42.664;23.256;2022-09-27T14:47:25;50614.94;;;-139.84;55.25
6528;BME280;3297;42.664;23.256;2022-09-27T14:50:15;50583.84;;;-139.84;55.11
6528;BME280;3297;42.664;23.256;2022-09-27T14:52:42;50605.22;;;-139.84;55.00
6528;BME280;3297;42.664;23.256;2022-09-27T14:55:16;50614.94;;;-139.84;54.86
6528;BME280;3297;42.664;23.256;2022-09-27T14:57:46;50614.94;;;-139.84;54.78
6528;BME280;3297;42.664;23.256;2022-09-27T15:00:17;50618.81;;;-139.84;54.75
6528;BME280;3297;42.664;23.256;2022-09-27T15:02:44;50628.53;;;-139.84;54.59
6528;BME280;3297;42.664;23.256;2022-09-27T15:05:16;50618.81;;;-139.84;57.11
6528;BME280;3297;42.664;23.256;2022-09-27T15:07:44;50556.63;;;-139.84;66.03
6528;BME280;3297;42.664;23.256;2022-09-27T15:10:21;50572.19;;;-139.84;69.41
6528;BME280;3297;42.664;23.256;2022-09-27T15:12:49;50576.06;;;-139.84;72.59
6528;BME280;3297;42.664;23.256;2022-09-27T15:15:29;50531.34;;;-139.84;75.25
6528;BME280;3297;42.664;23.256;2022-09-27T15:17:56;50548.84;;;-139.84;74.39
6528;BME280;3297;42.664;23.256;2022-09-27T15:20:30;50527.47;;;-139.84;74.40
6528;BME280;3297;42.664;23.256;2022-09-27T15:23:04;50529.41;;;-139.84;75.03
6528;BME280;3297;42.664;23.256;2022-09-27T15:25:33;50521.63;;;-139.84;76.66
6528;BME280;3297;42.664;23.256;2022-09-27T15:28:03;50486.66;;;-139.84;77.32
6528;BME280;3297;42.664;23.256;2022-09-27T15:30:33;50482.78;;;-139.84;79.10
6528;BME280;3297;42.664;23.256;2022-09-27T15:32:59;50560.50;;;-139.84;78.68
6528;BME280;3297;42.664;23.256;2022-09-27T15:35:31;50568.28;;;-139.84;79.32
6528;BME280;3297;42.664;23.256;2022-09-27T15:43:34;50541.06;;;-139.84;82.44
6528;BME280;3297;42.664;23.256;2022-09-27T15:46:23;50502.19;;;-139.84;87.51
6528;BME280;3297;42.664;23.256;2022-09-27T15:49:27;50506.09;;;-139.84;87.96
6528;BME280;3297;42.664;23.256;2022-09-27T15:52:00;50509.97;;;-139.84;88.23
6528;BME280;3297;42.664;23.256;2022-09-27T15:54:28;50541.06;;;-139.84;88.94
6528;BME280;3297;42.664;23.256;2022-09-27T15:56:59;50517.75;;;-139.84;90.00